createdAt,value
2017-05-24T00:01:12.670Z,27.40
2017-05-24T00:03:39.362Z,30.28
2017-05-24T00:06:06.053Z,29.88
2017-05-24T00:08:32.769Z,30.84
2017-05-24T00:10:59.453Z,29.16
2017-05-24T00:13:26.182Z,29.98
2017-05-24T00:15:52.871Z,29.70
2017-05-24T00:18:19.565Z,28.68
2017-05-24T00:20:46.285Z,29.34
2017-05-24T00:23:13.029Z,29.10
2017-05-24T00:25:39.768Z,26.28
2017-05-24T00:28:06.469Z,24.30
2017-05-24T00:30:33.170Z,21.52
2017-05-24T00:32:59.898Z,21.34
2017-05-24T00:35:26.580Z,18.46
2017-05-24T00:37:53.266Z,16.18
2017-05-24T00:40:19.996Z,16.00
2017-05-24T00:42:46.702Z,16.26
2017-05-24T00:45:13.441Z,14.16
2017-05-24T00:47:40.138Z,11.94
2017-05-24T00:50:06.869Z,14.10
2017-05-24T00:52:33.558Z,13.94
2017-05-24T00:55:00.253Z,12.14
2017-05-24T00:57:26.989Z,12.58
2017-05-24T00:59:53.677Z,10.52
2017-05-24T01:02:20.367Z,8.82
2017-05-24T01:04:47.122Z,10.24
2017-05-24T01:07:13.834Z,7.94
2017-05-24T01:09:40.524Z,5.86
2017-05-24T01:12:07.249Z,6.80
2017-05-24T01:14:33.977Z,5.36
2017-05-24T01:17:00.945Z,4.98
2017-05-24T01:19:27.653Z,8.12
2017-05-24T01:21:54.381Z,7.38
2017-05-24T01:24:21.107Z,8.78
2017-05-24T01:26:47.805Z,4.10
2017-05-24T01:29:14.529Z,4.70
2017-05-24T01:31:41.229Z,6.14
2017-05-24T01:34:07.961Z,4.42
2017-05-24T01:36:34.639Z,3.94
2017-05-24T01:39:01.325Z,4.50
2017-05-24T01:41:28.038Z,6.52
2017-05-24T01:43:54.734Z,3.52
2017-05-24T01:46:21.465Z,4.24
2017-05-24T01:48:48.166Z,5.32
2017-05-24T01:51:14.869Z,5.00
2017-05-24T01:53:41.635Z,6.28
2017-05-24T01:56:08.330Z,1.80
2017-05-24T01:58:35.059Z,5.72
2017-05-24T02:01:01.750Z,2.50
2017-05-24T02:03:28.476Z,2.38
2017-05-24T02:05:55.213Z,3.68
2017-05-24T02:08:21.901Z,2.64
2017-05-24T02:10:48.581Z,5.06
2017-05-24T02:13:15.323Z,6.08
2017-05-24T02:15:42.051Z,4.20
2017-05-24T02:18:08.742Z,7.16
2017-05-24T02:20:35.504Z,5.18
2017-05-24T02:23:02.264Z,7.38
2017-05-24T02:25:28.994Z,5.54
2017-05-24T02:27:55.683Z,9.82
2017-05-24T02:30:22.387Z,2.30
2017-05-24T02:32:49.126Z,5.44
2017-05-24T02:35:15.835Z,4.50
2017-05-24T02:37:42.558Z,6.00
2017-05-24T02:40:09.286Z,5.76
2017-05-24T02:42:36.005Z,4.14
2017-05-24T02:45:02.682Z,6.22
2017-05-24T02:47:29.427Z,5.70
2017-05-24T02:49:56.126Z,3.82
2017-05-24T02:52:22.822Z,5.16
2017-05-24T02:54:49.554Z,4.62
2017-05-24T02:57:16.290Z,4.78
2017-05-24T02:59:43.020Z,4.48
2017-05-24T03:02:09.746Z,4.10
2017-05-24T03:04:36.478Z,6.14
2017-05-24T03:07:03.173Z,3.18
2017-05-24T03:09:29.882Z,7.74
2017-05-24T03:11:56.644Z,4.84
2017-05-24T03:14:23.348Z,5.14
2017-05-24T03:16:50.038Z,7.36
2017-05-24T03:19:16.791Z,7.06
2017-05-24T03:21:43.506Z,5.18
2017-05-24T03:24:10.206Z,3.84
2017-05-24T03:26:36.933Z,3.28
2017-05-24T03:29:03.674Z,2.90
2017-05-24T03:31:30.362Z,4.40
2017-05-24T03:33:57.110Z,3.52
2017-05-24T03:36:23.793Z,11.82
2017-05-24T03:38:50.474Z,3.00
2017-05-24T03:41:17.215Z,5.88
2017-05-24T03:43:43.931Z,5.24
2017-05-24T03:46:10.681Z,3.58
2017-05-24T03:48:37.409Z,7.76
2017-05-24T03:51:04.114Z,9.60
2017-05-24T03:53:30.801Z,5.36
2017-05-24T03:55:57.554Z,7.80
2017-05-24T03:58:24.250Z,4.08
2017-05-24T04:00:50.938Z,11.08
2017-05-24T04:03:17.686Z,4.40
2017-05-24T04:05:44.454Z,6.30
2017-05-24T04:08:11.168Z,5.40
2017-05-24T04:10:37.869Z,7.98
2017-05-24T04:13:04.631Z,10.06
2017-05-24T04:15:31.318Z,5.52
2017-05-24T04:17:58.015Z,10.66
2017-05-24T04:20:24.762Z,9.60
2017-05-24T04:22:51.450Z,15.78
2017-05-24T04:25:25.098Z,7.36
2017-05-24T04:27:51.858Z,7.62
2017-05-24T04:30:18.553Z,8.26
2017-05-24T04:32:45.245Z,6.60
2017-05-24T04:35:11.974Z,9.00
2017-05-24T04:37:38.698Z,8.76
2017-05-24T04:40:05.394Z,8.98
2017-05-24T04:42:32.120Z,5.60
2017-05-24T04:44:58.867Z,9.00
2017-05-24T04:47:25.590Z,6.58
2017-05-24T04:49:52.339Z,6.70
2017-05-24T04:52:19.066Z,7.06
2017-05-24T04:54:45.762Z,4.26
2017-05-24T04:57:12.494Z,7.86
2017-05-24T04:59:39.197Z,11.54
2017-05-24T05:02:05.894Z,10.82
2017-05-24T05:04:32.637Z,3.60
2017-05-24T05:06:59.327Z,9.92
2017-05-24T05:09:26.037Z,5.98
2017-05-24T05:11:52.802Z,6.08
2017-05-24T05:14:19.494Z,5.42
2017-05-24T05:16:46.219Z,4.92
2017-05-24T05:19:12.911Z,6.76
2017-05-24T05:21:39.649Z,6.80
2017-05-24T05:24:06.337Z,7.50
2017-05-24T05:26:33.025Z,6.76
2017-05-24T05:28:59.753Z,5.10
2017-05-24T05:31:33.571Z,5.36
2017-05-24T05:34:00.310Z,8.72
2017-05-24T05:36:27.013Z,7.28
2017-05-24T05:38:53.722Z,5.74
2017-05-24T05:41:20.474Z,8.56
2017-05-24T05:43:47.214Z,8.24
2017-05-24T05:46:13.937Z,4.98
2017-05-24T05:48:40.622Z,6.50
2017-05-24T05:51:07.354Z,6.62
2017-05-24T05:53:34.039Z,7.84
2017-05-24T05:56:00.734Z,7.46
2017-05-24T05:58:27.465Z,7.60
2017-05-24T06:00:54.186Z,3.34
2017-05-24T06:03:20.930Z,5.48
2017-05-24T06:05:47.621Z,4.84
2017-05-24T06:08:14.309Z,2.92
2017-05-24T06:10:41.051Z,5.52
2017-05-24T06:13:07.742Z,5.22
2017-05-24T06:15:34.434Z,5.44
2017-05-24T06:18:01.162Z,5.18
2017-05-24T06:20:27.863Z,11.68
2017-05-24T06:22:54.582Z,5.34
2017-05-24T06:25:21.334Z,4.18
2017-05-24T06:27:48.030Z,5.44
2017-05-24T06:30:14.723Z,2.54
2017-05-24T06:32:41.465Z,5.54
2017-05-24T06:35:08.158Z,8.74
2017-05-24T06:37:34.887Z,6.94
2017-05-24T06:40:01.629Z,6.68
2017-05-24T06:42:28.322Z,4.76
2017-05-24T06:44:55.017Z,10.74
2017-05-24T06:47:21.778Z,6.26
2017-05-24T06:49:48.494Z,7.50
2017-05-24T06:52:15.178Z,6.06
2017-05-24T06:54:41.917Z,4.42
2017-05-24T06:57:08.609Z,4.28
2017-05-24T06:59:35.328Z,6.42
2017-05-24T07:02:02.083Z,7.06
2017-05-24T07:04:28.790Z,6.36
2017-05-24T07:06:55.490Z,7.32
2017-05-24T07:09:22.250Z,2.50
2017-05-24T07:11:48.982Z,4.94
2017-05-24T07:14:15.682Z,5.38
2017-05-24T07:16:42.374Z,7.58
2017-05-24T07:19:09.101Z,4.74
2017-05-24T07:21:35.795Z,9.18
2017-05-24T07:24:02.507Z,3.82
2017-05-24T07:26:29.197Z,8.84
2017-05-24T07:28:55.935Z,6.82
2017-05-24T07:31:22.645Z,6.74
2017-05-24T07:33:49.382Z,8.50
2017-05-24T07:36:16.073Z,5.98
2017-05-24T07:38:42.761Z,5.22
2017-05-24T07:41:09.486Z,4.72
2017-05-24T07:43:36.211Z,7.82
2017-05-24T07:46:02.942Z,7.46
2017-05-24T07:48:29.634Z,15.18
2017-05-24T07:50:56.350Z,7.28
2017-05-24T07:53:23.127Z,5.88
2017-05-24T07:55:49.821Z,4.36
2017-05-24T07:58:16.546Z,7.14
2017-05-24T08:00:43.273Z,3.26
2017-05-24T08:03:09.955Z,13.76
2017-05-24T08:05:36.650Z,6.62
2017-05-24T08:08:03.402Z,6.24
2017-05-24T08:10:30.098Z,4.56
2017-05-24T08:12:56.798Z,4.12
2017-05-24T08:15:23.557Z,5.92
2017-05-24T08:17:50.254Z,4.34
2017-05-24T08:20:16.959Z,5.30
2017-05-24T08:22:43.697Z,5.66
2017-05-24T08:25:10.434Z,7.28
2017-05-24T08:27:37.125Z,5.78
2017-05-24T08:30:03.846Z,9.82
2017-05-24T08:32:30.614Z,7.34
2017-05-24T08:34:57.322Z,6.62
2017-05-24T08:37:24.010Z,3.52
2017-05-24T08:39:50.746Z,5.54
2017-05-24T08:42:17.438Z,6.86
2017-05-24T08:44:44.170Z,5.48
2017-05-24T08:47:10.862Z,6.10
2017-05-24T08:49:37.550Z,4.24
2017-05-24T08:52:04.358Z,7.58
2017-05-24T08:54:31.104Z,7.02
2017-05-24T08:56:57.830Z,5.10
2017-05-24T08:59:24.552Z,6.12
2017-05-24T09:01:51.295Z,7.58
2017-05-24T09:04:17.985Z,4.32
2017-05-24T09:06:44.682Z,8.28
2017-05-24T09:09:11.455Z,9.70
2017-05-24T09:11:38.159Z,4.04
2017-05-24T09:14:04.858Z,4.10
2017-05-24T09:16:31.601Z,7.46
2017-05-24T09:18:58.337Z,4.36
2017-05-24T09:21:25.027Z,4.10
2017-05-24T09:23:51.764Z,5.74
2017-05-24T09:26:18.446Z,9.38
2017-05-24T09:28:45.142Z,6.68
2017-05-24T09:31:11.886Z,4.32
2017-05-24T09:33:45.642Z,2.68
2017-05-24T09:36:12.374Z,5.48
2017-05-24T09:38:39.066Z,4.74
2017-05-24T09:41:05.771Z,7.68
2017-05-24T09:43:32.532Z,5.58
2017-05-24T09:45:59.251Z,7.52
2017-05-24T09:48:25.938Z,7.34
2017-05-24T09:50:52.663Z,3.76
2017-05-24T09:53:19.367Z,5.10
2017-05-24T09:55:46.106Z,3.22
2017-05-24T09:58:12.798Z,5.02
2017-05-24T10:00:39.486Z,5.64
2017-05-24T10:03:06.257Z,4.66
2017-05-24T10:05:32.950Z,6.06
2017-05-24T10:07:59.666Z,9.78
2017-05-24T10:10:26.410Z,8.42
2017-05-24T10:12:53.101Z,7.96
2017-05-24T10:15:19.828Z,3.94
2017-05-24T10:17:46.506Z,5.04
2017-05-24T10:20:13.246Z,7.86
2017-05-24T10:22:39.941Z,5.32
2017-05-24T10:25:06.628Z,5.42
2017-05-24T10:27:33.354Z,3.44
2017-05-24T10:30:00.047Z,10.12
2017-05-24T10:32:26.802Z,5.54
2017-05-24T10:34:53.502Z,6.28
2017-05-24T10:37:20.246Z,4.90
2017-05-24T10:39:46.974Z,7.78
2017-05-24T10:42:34.578Z,5.42
2017-05-24T10:45:01.341Z,5.02
2017-05-24T10:47:28.048Z,4.92
2017-05-24T10:49:54.791Z,5.38
2017-05-24T10:52:21.522Z,7.18
2017-05-24T10:54:48.214Z,4.50
2017-05-24T10:57:14.977Z,12.00
2017-05-24T10:59:41.666Z,7.34
2017-05-24T11:02:08.371Z,3.48
2017-05-24T11:04:35.098Z,7.82
2017-05-24T11:07:01.781Z,5.36
2017-05-24T11:09:28.528Z,3.56
2017-05-24T11:11:55.261Z,7.26
2017-05-24T11:14:21.990Z,4.66
2017-05-24T11:16:48.735Z,5.52
2017-05-24T11:19:15.435Z,6.56
2017-05-24T11:21:42.154Z,5.34
2017-05-24T11:24:08.855Z,6.32
2017-05-24T11:26:35.602Z,2.64
2017-05-24T11:29:02.342Z,2.46
2017-05-24T11:31:29.034Z,4.76
2017-05-24T11:33:55.730Z,3.04
2017-05-24T11:36:22.470Z,5.30
2017-05-24T11:38:49.235Z,5.56
2017-05-24T11:41:15.958Z,3.24
2017-05-24T11:43:42.675Z,3.86
2017-05-24T11:46:09.441Z,4.68
2017-05-24T11:48:36.143Z,5.64
2017-05-24T11:51:02.863Z,5.20
2017-05-24T11:53:29.614Z,7.48
2017-05-24T11:55:56.339Z,8.18
2017-05-24T11:58:23.144Z,4.62
2017-05-24T12:00:49.939Z,3.76
2017-05-24T12:03:16.633Z,6.02
2017-05-24T12:05:43.319Z,4.74
2017-05-24T12:08:10.034Z,4.14
2017-05-24T12:10:36.722Z,3.66
2017-05-24T12:13:03.442Z,5.06
2017-05-24T12:15:30.137Z,4.60
2017-05-24T12:17:56.858Z,9.16
2017-05-24T12:20:23.607Z,5.92
2017-05-24T12:22:50.310Z,4.52
2017-05-24T12:25:17.045Z,4.88
2017-05-24T12:27:43.746Z,3.94
2017-05-24T12:30:10.434Z,3.42
2017-05-24T12:32:37.171Z,6.22
2017-05-24T12:35:03.863Z,9.76
2017-05-24T12:37:30.555Z,4.48
2017-05-24T12:39:57.284Z,2.94
2017-05-24T12:42:23.984Z,3.22
2017-05-24T12:44:50.759Z,5.40
2017-05-24T12:47:17.449Z,3.82
2017-05-24T12:49:44.174Z,6.10
2017-05-24T12:52:10.939Z,3.38
2017-05-24T12:54:37.635Z,4.90
2017-05-24T12:57:04.335Z,5.08
2017-05-24T12:59:31.062Z,4.52
2017-05-24T13:01:57.806Z,3.68
2017-05-24T13:04:23.774Z,8.22
2017-05-24T13:06:50.483Z,8.22
2017-05-24T13:09:17.229Z,6.90
2017-05-24T13:11:43.922Z,4.44
2017-05-24T13:14:10.646Z,4.52
2017-05-24T13:16:37.376Z,4.36
2017-05-24T13:19:04.075Z,6.04
2017-05-24T13:21:30.786Z,3.24
2017-05-24T13:23:57.479Z,3.36
2017-05-24T13:26:24.283Z,3.34
2017-05-24T13:28:51.079Z,3.96
2017-05-24T13:31:17.785Z,3.58
2017-05-24T13:33:44.511Z,4.86
2017-05-24T13:36:11.206Z,2.96
2017-05-24T13:38:37.897Z,5.46
2017-05-24T13:41:04.635Z,3.64
2017-05-24T13:43:31.346Z,1.98
2017-05-24T13:45:58.060Z,2.22
2017-05-24T13:48:24.830Z,4.42
2017-05-24T13:50:51.706Z,4.46
2017-05-24T13:53:18.406Z,4.48
2017-05-24T13:55:45.153Z,4.40
2017-05-24T13:58:12.083Z,2.76
2017-05-24T14:00:38.769Z,3.90
2017-05-24T14:03:05.512Z,9.42
2017-05-24T14:05:32.246Z,4.44
2017-05-24T14:07:58.952Z,2.48
2017-05-24T14:10:25.686Z,5.32
2017-05-24T14:12:52.785Z,4.72
2017-05-24T14:15:19.481Z,3.38
2017-05-24T14:17:46.171Z,3.68
2017-05-24T14:20:12.916Z,5.10
2017-05-24T14:22:46.574Z,5.08
2017-05-24T14:25:13.318Z,3.20
2017-05-24T14:27:40.011Z,7.12
2017-05-24T14:30:06.705Z,4.42
2017-05-24T14:32:33.434Z,3.28
2017-05-24T14:35:00.146Z,5.04
2017-05-24T14:37:26.833Z,2.48
2017-05-24T14:39:53.599Z,4.86
2017-05-24T14:42:20.316Z,2.70
2017-05-24T14:44:47.007Z,3.44
2017-05-24T14:47:13.733Z,3.38
2017-05-24T14:49:40.430Z,2.52
2017-05-24T14:52:07.161Z,6.36
2017-05-24T14:54:33.854Z,3.72
2017-05-24T14:57:00.543Z,9.42
2017-05-24T14:59:27.306Z,3.24
2017-05-24T15:01:54.095Z,3.88
2017-05-24T15:04:20.786Z,3.24
2017-05-24T15:06:47.530Z,4.50
2017-05-24T15:09:14.218Z,3.72
2017-05-24T15:11:40.910Z,3.36
2017-05-24T15:14:07.618Z,2.08
2017-05-24T15:16:34.304Z,9.62
2017-05-24T15:19:01.039Z,3.66
2017-05-24T15:21:27.730Z,3.24
2017-05-24T15:23:54.442Z,1.70
2017-05-24T15:26:21.242Z,5.58
2017-05-24T15:28:47.966Z,2.40
2017-05-24T15:31:14.722Z,7.40
2017-05-24T15:33:41.412Z,4.66
2017-05-24T15:36:08.172Z,4.12
2017-05-24T15:38:34.857Z,5.38
2017-05-24T15:41:01.549Z,2.20
2017-05-24T15:43:28.265Z,5.88
2017-05-24T15:45:54.973Z,4.78
2017-05-24T15:48:21.678Z,5.28
2017-05-24T15:50:48.441Z,5.54
2017-05-24T15:53:15.130Z,2.34
2017-05-24T15:55:41.866Z,2.62
2017-05-24T15:58:08.564Z,4.76
2017-05-24T16:00:35.251Z,6.56
2017-05-24T16:03:01.982Z,3.48
2017-05-24T16:05:28.666Z,2.44
2017-05-24T16:07:55.374Z,9.22
2017-05-24T16:10:22.115Z,6.50
2017-05-24T16:12:48.865Z,4.56
2017-05-24T16:15:15.560Z,4.78
2017-05-24T16:17:42.315Z,3.56
2017-05-24T16:20:09.033Z,3.56
2017-05-24T16:22:35.722Z,3.82
2017-05-24T16:25:02.459Z,2.86
2017-05-24T16:27:29.161Z,6.72
2017-05-24T16:29:55.874Z,3.10
2017-05-24T16:32:22.988Z,3.62
2017-05-24T16:34:49.752Z,5.14
2017-05-24T16:37:16.443Z,5.98
2017-05-24T16:39:43.178Z,5.02
2017-05-24T16:42:09.912Z,3.92
2017-05-24T16:44:36.596Z,4.20
2017-05-24T16:47:03.318Z,5.00
2017-05-24T16:49:30.011Z,9.12
2017-05-24T16:51:56.773Z,6.14
2017-05-24T16:54:23.510Z,5.08
2017-05-24T16:56:50.422Z,5.42
2017-05-24T16:59:17.130Z,6.04
2017-05-24T17:01:43.818Z,5.66
2017-05-24T17:04:17.423Z,4.70
2017-05-24T17:06:44.114Z,6.00
2017-05-24T17:09:10.805Z,6.42
2017-05-24T17:11:37.561Z,3.52
2017-05-24T17:14:11.346Z,4.48
2017-05-24T17:16:38.078Z,8.20
2017-05-24T17:19:04.788Z,6.02
2017-05-24T17:21:31.510Z,4.56
2017-05-24T17:23:58.239Z,8.88
2017-05-24T17:26:24.930Z,7.54
2017-05-24T17:28:51.685Z,7.82
2017-05-24T17:31:18.372Z,5.64
2017-05-24T17:33:52.084Z,4.44
2017-05-24T17:36:18.785Z,2.74
2017-05-24T17:38:45.505Z,5.24
2017-05-24T17:41:12.238Z,6.18
2017-05-24T17:43:38.929Z,9.60
2017-05-24T17:46:05.654Z,3.36
2017-05-24T17:48:32.383Z,7.56
2017-05-24T17:50:59.126Z,2.76
2017-05-24T17:53:25.930Z,5.82
2017-05-24T17:55:52.793Z,3.46
2017-05-24T17:58:19.531Z,5.42
2017-05-24T18:00:46.267Z,3.92
2017-05-24T18:03:13.086Z,4.28
2017-05-24T18:05:39.779Z,4.58
2017-05-24T18:08:06.504Z,5.16
2017-05-24T18:10:33.194Z,5.20
2017-05-24T18:12:59.934Z,4.46
2017-05-24T18:15:26.646Z,6.64
2017-05-24T18:17:53.416Z,10.90
2017-05-24T18:20:20.154Z,11.88
2017-05-24T18:22:46.862Z,7.88
2017-05-24T18:25:13.614Z,7.50
2017-05-24T18:27:40.303Z,5.12
2017-05-24T18:30:06.989Z,8.22
2017-05-24T18:32:33.695Z,7.92
2017-05-24T18:35:00.374Z,7.14
2017-05-24T18:37:27.119Z,5.20
2017-05-24T18:39:53.830Z,7.36
2017-05-24T18:42:20.550Z,5.84
2017-05-24T18:44:47.271Z,4.56
2017-05-24T18:47:13.994Z,10.30
2017-05-24T18:49:40.682Z,9.90
2017-05-24T18:52:07.397Z,4.26
2017-05-24T18:54:34.143Z,4.42
2017-05-24T18:57:00.981Z,13.54
2017-05-24T18:59:27.683Z,3.98
2017-05-24T19:01:54.495Z,7.38
2017-05-24T19:04:21.234Z,7.42
2017-05-24T19:06:48.436Z,7.30
2017-05-24T19:09:15.338Z,5.62
2017-05-24T19:11:42.063Z,4.80
2017-05-24T19:14:08.795Z,7.98
2017-05-24T19:16:35.538Z,3.90
2017-05-24T19:19:02.238Z,3.84
2017-05-24T19:21:28.939Z,5.02
2017-05-24T19:23:55.700Z,4.28
2017-05-24T19:26:22.415Z,6.66
2017-05-24T19:28:49.121Z,5.86
2017-05-24T19:31:15.866Z,6.84
2017-05-24T19:33:42.558Z,8.64
2017-05-24T19:36:16.245Z,3.34
2017-05-24T19:38:42.960Z,4.08
2017-05-24T19:41:09.655Z,5.18
2017-05-24T19:43:51.418Z,5.32
2017-05-24T19:46:18.114Z,4.68
2017-05-24T19:48:44.846Z,4.90
2017-05-24T19:51:11.542Z,3.38
2017-05-24T19:53:38.241Z,4.44
2017-05-24T19:56:04.961Z,3.90
2017-05-24T19:58:31.681Z,7.66
2017-05-24T20:00:58.471Z,4.74
2017-05-24T20:03:25.210Z,5.38
2017-05-24T20:05:51.939Z,4.76
2017-05-24T20:08:18.690Z,4.30
2017-05-24T20:10:45.381Z,6.42
2017-05-24T20:13:12.074Z,4.46
2017-05-24T20:15:38.806Z,5.16
2017-05-24T20:18:05.691Z,5.00
2017-05-24T20:20:32.882Z,8.08
2017-05-24T20:22:59.569Z,4.78
2017-05-24T20:25:33.314Z,4.62
2017-05-24T20:28:00.022Z,5.06
2017-05-24T20:30:26.714Z,4.10
2017-05-24T20:32:53.477Z,6.44
2017-05-24T20:35:20.216Z,3.80
2017-05-24T20:37:46.913Z,6.80
2017-05-24T20:40:13.675Z,5.32
2017-05-24T20:42:40.375Z,5.36
2017-05-24T20:45:07.076Z,4.64
2017-05-24T20:47:33.830Z,6.78
2017-05-24T20:50:00.546Z,4.42
2017-05-24T20:52:27.278Z,5.36
2017-05-24T20:54:53.981Z,8.38
2017-05-24T20:57:20.757Z,5.78
2017-05-24T20:59:47.457Z,6.26
2017-05-24T21:02:14.159Z,6.30
2017-05-24T21:04:40.906Z,8.20
2017-05-24T21:07:07.594Z,5.34
2017-05-24T21:09:34.287Z,6.32
2017-05-24T21:12:01.010Z,8.16
2017-05-24T21:14:27.708Z,9.38
2017-05-24T21:16:54.406Z,6.92
2017-05-24T21:19:21.155Z,7.16
2017-05-24T21:21:47.854Z,5.60
2017-05-24T21:24:14.543Z,5.92
2017-05-24T21:26:41.302Z,5.94
2017-05-24T21:29:07.990Z,6.72
2017-05-24T21:31:34.723Z,5.14
2017-05-24T21:34:01.418Z,5.54
2017-05-24T21:36:28.114Z,5.06
2017-05-24T21:38:55.085Z,7.10
2017-05-24T21:41:21.799Z,4.40
2017-05-24T21:43:48.491Z,7.60
2017-05-24T21:46:15.233Z,5.06
2017-05-24T21:48:41.954Z,5.90
2017-05-24T21:51:08.646Z,8.48
2017-05-24T21:53:35.387Z,4.16
2017-05-24T21:56:02.086Z,6.02
2017-05-24T21:58:28.778Z,3.70
2017-05-24T22:00:55.542Z,5.42
2017-05-24T22:03:22.251Z,6.38
2017-05-24T22:05:48.948Z,7.20
2017-05-24T22:08:15.688Z,4.42
2017-05-24T22:10:42.420Z,3.72
2017-05-24T22:13:09.118Z,4.54
2017-05-24T22:15:35.866Z,6.80
2017-05-24T22:18:02.586Z,6.08
2017-05-24T22:20:29.275Z,6.68
2017-05-24T22:22:56.042Z,7.56
2017-05-24T22:25:22.770Z,4.84
2017-05-24T22:27:49.461Z,12.64
2017-05-24T22:30:16.242Z,6.44
2017-05-24T22:32:43.047Z,4.30
2017-05-24T22:35:09.739Z,4.92
2017-05-24T22:37:36.430Z,4.64
2017-05-24T22:40:03.167Z,7.48
2017-05-24T22:42:29.891Z,5.18
2017-05-24T22:44:56.594Z,6.80
2017-05-24T22:47:23.328Z,8.00
2017-05-24T22:49:50.055Z,6.32
2017-05-24T22:52:16.754Z,6.76
2017-05-24T22:54:43.502Z,4.22
2017-05-24T22:57:10.198Z,4.96
2017-05-24T22:59:36.903Z,7.88
2017-05-24T23:02:03.648Z,5.34
2017-05-24T23:04:30.338Z,5.50
2017-05-24T23:06:57.040Z,8.98
2017-05-24T23:09:23.787Z,12.48
2017-05-24T23:11:50.519Z,4.74
2017-05-24T23:14:17.215Z,5.60
2017-05-24T23:16:43.946Z,5.92
2017-05-24T23:19:10.637Z,4.60
2017-05-24T23:21:37.372Z,6.00
2017-05-24T23:24:04.085Z,4.14
2017-05-24T23:26:30.778Z,4.78
2017-05-24T23:28:57.517Z,4.30
2017-05-24T23:31:24.212Z,6.94
2017-05-24T23:33:50.906Z,7.82
2017-05-24T23:36:17.647Z,9.90
2017-05-24T23:38:44.350Z,7.60
2017-05-24T23:41:11.067Z,5.50
2017-05-24T23:43:37.808Z,7.12
2017-05-24T23:46:04.510Z,5.04
2017-05-24T23:48:31.203Z,6.62
2017-05-24T23:50:57.943Z,5.82
2017-05-24T23:53:24.642Z,3.66
2017-05-24T23:55:51.330Z,4.12
2017-05-24T23:58:18.088Z,5.14
